Pagrindinis puslapis
METAR-TAF:

METAR-TAF

Oro uostai :

Hamadanas, Iranas

platuma: 34-52-05N, ilguma: 048-33-08E, Aukštis: 1757 m

Dabartinis oras

Ataskaita buvo paskelbta 47 minutes, ne 10:00 UTC
Vėjas 6 kt iš Rytų/Šiaurės Rytų
Temperatūra 2°C
Drėgmė 93%
Slėgis 1012 hPa
Matomumas: 7000 m
Mažai debesys ne aukštis 3500 ft, Liūtiniai kamuoliniai debesys.
Išsisklaidę debesys ne aukštis 4000 ft
Su prošvaistėmis ne aukštis 10000 ft

METAR: OIHH 261000Z 07006KT 7000 FEW035CB SCT040 BKN100 02/01 Q1012

Laikas: 14:17 (10:47 UTC)


TAF: trūkstamas

Orai ataskaitas ir orų prognozės (METAR, TAF).

turimą stotys yra geltonos ir raudonos taškus žemėlapyje.

Perkelti pele per norėdami pamatyti stoties vardą.

Tada spustelėkite, norėdami matyti oro stebėjimo ir prognozės.

Norėdami pakeisti žemėlapį: spustelėkite ant žalios mygtukų su juodo kryžiaus žemyn,; žalią mygtuką su brūkšneliu, jei norite nutolinti; arba žalių rodyklių gretimoms žemėlapius.


METAR-TAF: